sensor_id;sensor_type;location;lat;lon;timestamp;pressure;altitude;pressure_sealevel;temperature;humidity
79645;BME280;69117;47.148;18.954;2023-05-10T00:00:31;100797.91;;;9.77;0.00
79645;BME280;69117;47.148;18.954;2023-05-10T00:03:32;100800.03;;;9.62;0.00
79645;BME280;69117;47.148;18.954;2023-05-10T00:06:34;100786.41;;;9.57;0.00
79645;BME280;69117;47.148;18.954;2023-05-10T00:09:36;100790.06;;;9.45;0.00
79645;BME280;69117;47.148;18.954;2023-05-10T00:12:37;100789.97;;;9.56;0.00
79645;BME280;69117;47.148;18.954;2023-05-10T00:15:39;100803.06;;;9.57;0.00
79645;BME280;69117;47.148;18.954;2023-05-10T00:18:41;100799.16;;;9.40;0.00
79645;BME280;69117;47.148;18.954;2023-05-10T00:21:42;100798.16;;;9.21;0.00
79645;BME280;69117;47.148;18.954;2023-05-10T00:24:44;100802.06;;;8.94;0.00
79645;BME280;69117;47.148;18.954;2023-05-10T00:27:45;100792.41;;;8.72;0.00
79645;BME280;69117;47.148;18.954;2023-05-10T00:30:47;100782.59;;;8.52;0.00
79645;BME280;69117;47.148;18.954;2023-05-10T00:33:49;100786.19;;;8.39;0.00
79645;BME280;69117;47.148;18.954;2023-05-10T00:36:50;100787.47;;;8.34;0.00
79645;BME280;69117;47.148;18.954;2023-05-10T00:39:52;100786.28;;;8.26;0.00
79645;BME280;69117;47.148;18.954;2023-05-10T00:42:53;100790.31;;;8.08;0.00
79645;BME280;69117;47.148;18.954;2023-05-10T00:45:55;100790.78;;;8.02;0.00
79645;BME280;69117;47.148;18.954;2023-05-10T00:48:57;100786.09;;;7.94;0.00
79645;BME280;69117;47.148;18.954;2023-05-10T00:51:59;100778.34;;;7.93;0.00
79645;BME280;69117;47.148;18.954;2023-05-10T00:55:01;100771.34;;;7.80;0.00
79645;BME280;69117;47.148;18.954;2023-05-10T00:58:03;100769.41;;;7.71;0.00
79645;BME280;69117;47.148;18.954;2023-05-10T01:01:05;100774.56;;;7.73;0.00
79645;BME280;69117;47.148;18.954;2023-05-10T01:04:07;100761.63;;;7.58;0.00
79645;BME280;69117;47.148;18.954;2023-05-10T01:07:10;100773.94;;;7.58;0.00
79645;BME280;69117;47.148;18.954;2023-05-10T01:10:11;100767.47;;;7.51;0.00
79645;BME280;69117;47.148;18.954;2023-05-10T01:16:40;100767.69;;;7.48;0.00
79645;BME280;69117;47.148;18.954;2023-05-10T01:19:43;100771.50;;;7.44;0.00
79645;BME280;69117;47.148;18.954;2023-05-10T01:26:17;100774.56;;;7.38;0.00
79645;BME280;69117;47.148;18.954;2023-05-10T01:32:59;100780.19;;;7.33;0.00
79645;BME280;69117;47.148;18.954;2023-05-10T01:36:08;100772.41;;;7.31;0.00
79645;BME280;69117;47.148;18.954;2023-05-10T01:39:18;100763.91;;;7.28;0.00
79645;BME280;69117;47.148;18.954;2023-05-10T01:42:26;100778.38;;;7.33;0.00
79645;BME280;69117;47.148;18.954;2023-05-10T01:46:05;100779.34;;;7.32;0.00
79645;BME280;69117;47.148;18.954;2023-05-10T01:49:23;100762.25;;;7.27;0.00
79645;BME280;69117;47.148;18.954;2023-05-10T01:52:32;100766.03;;;7.23;0.00
79645;BME280;69117;47.148;18.954;2023-05-10T01:55:47;100768.88;;;7.20;0.00
79645;BME280;69117;47.148;18.954;2023-05-10T01:58:50;100758.50;;;7.18;0.00
79645;BME280;69117;47.148;18.954;2023-05-10T02:01:54;100758.94;;;7.12;0.00
79645;BME280;69117;47.148;18.954;2023-05-10T02:04:57;100762.63;;;7.09;0.00
79645;BME280;69117;47.148;18.954;2023-05-10T02:08:01;100731.00;;;6.87;0.00
79645;BME280;69117;47.148;18.954;2023-05-10T02:11:03;100759.31;;;6.95;0.00
79645;BME280;69117;47.148;18.954;2023-05-10T02:14:08;100746.63;;;6.88;0.00
79645;BME280;69117;47.148;18.954;2023-05-10T02:17:11;100755.25;;;6.91;0.00
79645;BME280;69117;47.148;18.954;2023-05-10T02:20:13;100758.59;;;6.93;0.00
79645;BME280;69117;47.148;18.954;2023-05-10T02:23:18;100753.13;;;6.96;0.00
79645;BME280;69117;47.148;18.954;2023-05-10T02:26:22;100753.13;;;6.96;0.00
79645;BME280;69117;47.148;18.954;2023-05-10T02:29:25;100756.69;;;6.95;0.00
79645;BME280;69117;47.148;18.954;2023-05-10T02:32:29;100753.13;;;6.96;0.00
79645;BME280;69117;47.148;18.954;2023-05-10T02:35:31;100756.19;;;6.89;0.00
79645;BME280;69117;47.148;18.954;2023-05-10T02:38:35;100749.84;;;6.81;0.00
79645;BME280;69117;47.148;18.954;2023-05-10T02:41:40;100750.88;;;6.78;0.00
79645;BME280;69117;47.148;18.954;2023-05-10T02:44:43;100739.13;;;6.71;0.00
79645;BME280;69117;47.148;18.954;2023-05-10T02:47:47;100750.47;;;6.72;0.00
79645;BME280;69117;47.148;18.954;2023-05-10T02:50:50;100735.59;;;6.59;0.00
79645;BME280;69117;47.148;18.954;2023-05-10T02:53:54;100747.78;;;6.60;0.00
79645;BME280;69117;47.148;18.954;2023-05-10T02:56:58;100746.38;;;6.68;0.00
79645;BME280;69117;47.148;18.954;2023-05-10T03:00:04;100739.47;;;6.67;0.00
79645;BME280;69117;47.148;18.954;2023-05-10T03:03:06;100748.47;;;6.75;0.00
79645;BME280;69117;47.148;18.954;2023-05-10T03:06:09;100754.00;;;6.83;0.00
79645;BME280;69117;47.148;18.954;2023-05-10T03:09:11;100749.69;;;6.82;0.00
79645;BME280;69117;47.148;18.954;2023-05-10T03:12:33;100747.81;;;6.84;0.00
79645;BME280;69117;47.148;18.954;2023-05-10T03:19:12;100744.47;;;6.82;0.00
79645;BME280;69117;47.148;18.954;2023-05-10T03:22:25;100746.63;;;6.88;0.00
79645;BME280;69117;47.148;18.954;2023-05-10T03:25:28;100738.97;;;6.85;0.00
79645;BME280;69117;47.148;18.954;2023-05-10T03:28:31;100749.38;;;6.87;0.00
79645;BME280;69117;47.148;18.954;2023-05-10T03:31:34;100744.34;;;6.84;0.00
79645;BME280;69117;47.148;18.954;2023-05-10T03:34:41;100735.84;;;6.80;0.00
79645;BME280;69117;47.148;18.954;2023-05-10T03:37:42;100746.84;;;6.85;0.00
79645;BME280;69117;47.148;18.954;2023-05-10T03:40:44;100746.34;;;6.80;0.00
79645;BME280;69117;47.148;18.954;2023-05-10T03:43:46;100744.06;;;6.76;0.00
79645;BME280;69117;47.148;18.954;2023-05-10T03:46:47;100747.31;;;6.79;0.00
79645;BME280;69117;47.148;18.954;2023-05-10T03:49:49;100736.50;;;6.71;0.00
79645;BME280;69117;47.148;18.954;2023-05-10T03:52:51;100750.75;;;6.80;0.00
79645;BME280;69117;47.148;18.954;2023-05-10T03:55:55;100749.47;;;6.85;0.00
79645;BME280;69117;47.148;18.954;2023-05-10T03:58:56;100742.81;;;6.93;0.00
79645;BME280;69117;47.148;18.954;2023-05-10T04:01:58;100736.91;;;7.02;0.00
79645;BME280;69117;47.148;18.954;2023-05-10T04:04:59;100738.22;;;7.20;0.00
79645;BME280;69117;47.148;18.954;2023-05-10T04:08:02;100749.13;;;7.38;0.00
79645;BME280;69117;47.148;18.954;2023-05-10T04:11:11;100738.56;;;7.51;0.00
79645;BME280;69117;47.148;18.954;2023-05-10T04:14:13;100737.84;;;7.60;0.00
79645;BME280;69117;47.148;18.954;2023-05-10T04:17:17;100742.06;;;7.74;0.00
79645;BME280;69117;47.148;18.954;2023-05-10T04:20:19;100747.25;;;7.98;0.00
79645;BME280;69117;47.148;18.954;2023-05-10T04:23:21;100755.75;;;8.13;0.00
79645;BME280;69117;47.148;18.954;2023-05-10T04:26:23;100754.56;;;8.28;0.00
79645;BME280;69117;47.148;18.954;2023-05-10T04:29:26;100754.94;;;8.57;0.00
79645;BME280;69117;47.148;18.954;2023-05-10T04:32:28;100756.13;;;8.64;0.00
79645;BME280;69117;47.148;18.954;2023-05-10T04:35:30;100757.63;;;8.89;0.00
79645;BME280;69117;47.148;18.954;2023-05-10T04:38:32;100750.16;;;9.06;0.00
79645;BME280;69117;47.148;18.954;2023-05-10T04:41:33;100742.31;;;9.27;0.00
79645;BME280;69117;47.148;18.954;2023-05-10T04:44:36;100730.03;;;9.37;0.00
79645;BME280;69117;47.148;18.954;2023-05-10T04:47:37;100742.97;;;9.61;0.00
79645;BME280;69117;47.148;18.954;2023-05-10T04:50:39;100750.75;;;9.83;0.00
79645;BME280;69117;47.148;18.954;2023-05-10T04:53:41;100752.22;;;9.97;0.00
79645;BME280;69117;47.148;18.954;2023-05-10T04:56:51;100750.78;;;10.14;0.00
79645;BME280;69117;47.148;18.954;2023-05-10T04:59:53;100757.28;;;10.31;0.00
79645;BME280;69117;47.148;18.954;2023-05-10T05:02:54;100751.63;;;10.45;0.00
79645;BME280;69117;47.148;18.954;2023-05-10T05:05:56;100762.25;;;10.65;0.00
79645;BME280;69117;47.148;18.954;2023-05-10T05:08:58;100761.56;;;10.63;0.00
79645;BME280;69117;47.148;18.954;2023-05-10T05:11:59;100756.44;;;10.71;0.00
79645;BME280;69117;47.148;18.954;2023-05-10T05:15:02;100741.06;;;10.95;0.00
79645;BME280;69117;47.148;18.954;2023-05-10T05:18:04;100756.81;;;11.26;0.00
79645;BME280;69117;47.148;18.954;2023-05-10T05:21:18;100762.50;;;11.41;0.00
79645;BME280;69117;47.148;18.954;2023-05-10T05:24:20;100766.50;;;11.64;0.00
79645;BME280;69117;47.148;18.954;2023-05-10T05:27:22;100750.38;;;11.58;0.00
79645;BME280;69117;47.148;18.954;2023-05-10T05:30:25;100759.66;;;12.01;0.00
79645;BME280;69117;47.148;18.954;2023-05-10T05:33:27;100765.91;;;12.09;0.00
79645;BME280;69117;47.148;18.954;2023-05-10T05:36:28;100757.09;;;12.19;0.00
79645;BME280;69117;47.148;18.954;2023-05-10T05:39:30;100773.66;;;12.58;0.00
79645;BME280;69117;47.148;18.954;2023-05-10T05:42:32;100767.09;;;12.62;0.00
79645;BME280;69117;47.148;18.954;2023-05-10T05:45:33;100749.03;;;12.48;0.00
79645;BME280;69117;47.148;18.954;2023-05-10T05:48:35;100770.63;;;12.80;0.00
79645;BME280;69117;47.148;18.954;2023-05-10T05:51:37;100767.88;;;12.72;0.00
79645;BME280;69117;47.148;18.954;2023-05-10T05:54:39;100785.41;;;13.01;0.00
79645;BME280;69117;47.148;18.954;2023-05-10T05:57:41;100776.94;;;13.15;0.00
79645;BME280;69117;47.148;18.954;2023-05-10T06:00:42;100780.91;;;13.11;71.06
79645;BME280;69117;47.148;18.954;2023-05-10T06:03:44;100781.84;;;13.56;69.53
79645;BME280;69117;47.148;18.954;2023-05-10T06:06:46;100785.69;;;13.61;69.67
79645;BME280;69117;47.148;18.954;2023-05-10T06:09:47;100780.94;;;13.65;68.03
79645;BME280;69117;47.148;18.954;2023-05-10T06:12:49;100786.75;;;13.68;68.42
79645;BME280;69117;47.148;18.954;2023-05-10T06:15:51;100781.00;;;13.99;68.53
79645;BME280;69117;47.148;18.954;2023-05-10T06:18:52;100780.00;;;14.26;68.08
79645;BME280;69117;47.148;18.954;2023-05-10T06:21:54;100780.31;;;13.97;66.93
79645;BME280;69117;47.148;18.954;2023-05-10T06:24:56;100790.53;;;14.10;66.19
79645;BME280;69117;47.148;18.954;2023-05-10T06:27:57;100788.25;;;14.15;66.37
79645;BME280;69117;47.148;18.954;2023-05-10T06:30:59;100787.22;;;14.08;65.37
79645;BME280;69117;47.148;18.954;2023-05-10T06:34:01;100787.41;;;14.14;66.15
79645;BME280;69117;47.148;18.954;2023-05-10T06:37:03;100787.16;;;14.26;66.76
79645;BME280;69117;47.148;18.954;2023-05-10T06:40:11;100796.53;;;14.72;63.88
79645;BME280;69117;47.148;18.954;2023-05-10T06:43:14;100795.00;;;14.61;64.72
79645;BME280;69117;47.148;18.954;2023-05-10T06:46:15;100787.19;;;14.60;65.79
79645;BME280;69117;47.148;18.954;2023-05-10T06:49:17;100795.94;;;14.86;64.58
79645;BME280;69117;47.148;18.954;2023-05-10T06:52:19;100798.09;;;14.91;64.49
79645;BME280;69117;47.148;18.954;2023-05-10T06:55:20;100784.56;;;15.35;64.02
79645;BME280;69117;47.148;18.954;2023-05-10T06:58:22;100793.41;;;14.85;64.21
79645;BME280;69117;47.148;18.954;2023-05-10T07:01:24;100785.75;;;14.82;62.90
79645;BME280;69117;47.148;18.954;2023-05-10T07:04:25;100794.81;;;15.05;63.20
79645;BME280;69117;47.148;18.954;2023-05-10T07:07:28;100798.19;;;15.32;62.54
79645;BME280;69117;47.148;18.954;2023-05-10T07:10:30;100791.88;;;15.66;61.92
79645;BME280;69117;47.148;18.954;2023-05-10T07:13:31;100783.56;;;15.61;61.51
79645;BME280;69117;47.148;18.954;2023-05-10T07:16:33;100784.88;;;15.48;62.72
79645;BME280;69117;47.148;18.954;2023-05-10T07:19:35;100797.19;;;15.57;60.22
79645;BME280;69117;47.148;18.954;2023-05-10T07:22:37;100804.19;;;15.42;60.29
79645;BME280;69117;47.148;18.954;2023-05-10T07:25:39;100781.59;;;15.71;60.58
79645;BME280;69117;47.148;18.954;2023-05-10T07:28:40;100788.69;;;16.19;60.99
79645;BME280;69117;47.148;18.954;2023-05-10T07:31:42;100783.22;;;15.96;58.44
79645;BME280;69117;47.148;18.954;2023-05-10T07:34:44;100777.28;;;16.50;59.07
79645;BME280;69117;47.148;18.954;2023-05-10T07:37:45;100781.56;;;16.59;57.37
79645;BME280;69117;47.148;18.954;2023-05-10T07:40:47;100778.53;;;16.70;57.76
79645;BME280;69117;47.148;18.954;2023-05-10T07:43:49;100788.00;;;16.25;56.39
79645;BME280;69117;47.148;18.954;2023-05-10T07:46:50;100784.22;;;16.59;54.73
79645;BME280;69117;47.148;18.954;2023-05-10T07:49:52;100774.44;;;16.91;55.92
79645;BME280;69117;47.148;18.954;2023-05-10T07:52:54;100777.28;;;16.89;54.96
79645;BME280;69117;47.148;18.954;2023-05-10T07:55:59;100779.50;;;17.09;55.71
79645;BME280;69117;47.148;18.954;2023-05-10T07:59:04;100789.25;;;17.25;55.49
79645;BME280;69117;47.148;18.954;2023-05-10T08:02:07;100786.56;;;17.71;54.37
79645;BME280;69117;47.148;18.954;2023-05-10T08:05:09;100772.91;;;18.18;51.82
79645;BME280;69117;47.148;18.954;2023-05-10T08:08:11;100764.63;;;18.13;51.00
79645;BME280;69117;47.148;18.954;2023-05-10T08:11:12;100767.19;;;17.92;52.79
79645;BME280;69117;47.148;18.954;2023-05-10T08:14:14;100772.66;;;18.28;49.36
79645;BME280;69117;47.148;18.954;2023-05-10T08:17:16;100785.38;;;18.11;48.93
79645;BME280;69117;47.148;18.954;2023-05-10T08:20:20;100781.38;;;17.69;49.96
79645;BME280;69117;47.148;18.954;2023-05-10T08:23:22;100773.00;;;17.95;49.10
79645;BME280;69117;47.148;18.954;2023-05-10T08:26:23;100769.31;;;18.70;49.87
79645;BME280;69117;47.148;18.954;2023-05-10T08:29:25;100767.88;;;19.04;47.97
79645;BME280;69117;47.148;18.954;2023-05-10T08:32:30;100757.66;;;19.36;45.55
79645;BME280;69117;47.148;18.954;2023-05-10T08:35:32;100766.72;;;18.92;46.10
79645;BME280;69117;47.148;18.954;2023-05-10T08:38:35;100768.44;;;19.21;45.54
79645;BME280;69117;47.148;18.954;2023-05-10T08:41:39;100765.97;;;17.79;48.80
79645;BME280;69117;47.148;18.954;2023-05-10T08:44:42;100764.34;;;18.67;47.67
79645;BME280;69117;47.148;18.954;2023-05-10T08:47:44;100765.25;;;18.15;49.95
79645;BME280;69117;47.148;18.954;2023-05-10T08:50:46;100764.50;;;18.66;47.70
79645;BME280;69117;47.148;18.954;2023-05-10T08:53:49;100762.38;;;19.77;45.84
79645;BME280;69117;47.148;18.954;2023-05-10T08:56:51;100753.19;;;18.49;46.03
79645;BME280;69117;47.148;18.954;2023-05-10T08:59:54;100759.31;;;19.80;45.68
79645;BME280;69117;47.148;18.954;2023-05-10T09:02:58;100765.97;;;19.90;45.16
79645;BME280;69117;47.148;18.954;2023-05-10T09:06:00;100755.81;;;19.79;43.49
79645;BME280;69117;47.148;18.954;2023-05-10T09:09:02;100762.91;;;19.94;43.75
79645;BME280;69117;47.148;18.954;2023-05-10T09:12:05;100754.09;;;19.50;43.18
79645;BME280;69117;47.148;18.954;2023-05-10T09:15:09;100763.94;;;19.43;44.96
79645;BME280;69117;47.148;18.954;2023-05-10T09:18:11;100754.47;;;19.26;43.45
79645;BME280;69117;47.148;18.954;2023-05-10T09:21:13;100749.63;;;18.93;45.00
79645;BME280;69117;47.148;18.954;2023-05-10T09:24:15;100761.28;;;18.70;43.88
79645;BME280;69117;47.148;18.954;2023-05-10T09:27:16;100753.63;;;18.67;44.93
79645;BME280;69117;47.148;18.954;2023-05-10T09:30:29;100746.53;;;18.15;46.00
79645;BME280;69117;47.148;18.954;2023-05-10T09:33:43;100747.09;;;19.28;45.22
79645;BME280;69117;47.148;18.954;2023-05-10T09:36:56;100753.94;;;18.94;44.00
79645;BME280;69117;47.148;18.954;2023-05-10T09:39:58;100732.97;;;19.40;45.46
79645;BME280;69117;47.148;18.954;2023-05-10T09:43:06;100756.25;;;19.61;44.46
79645;BME280;69117;47.148;18.954;2023-05-10T09:46:11;100751.78;;;20.25;41.64
79645;BME280;69117;47.148;18.954;2023-05-10T09:49:14;100729.53;;;19.68;42.51
79645;BME280;69117;47.148;18.954;2023-05-10T09:52:16;100756.56;;;19.30;45.42
79645;BME280;69117;47.148;18.954;2023-05-10T09:55:19;100746.94;;;20.13;44.98
79645;BME280;69117;47.148;18.954;2023-05-10T09:58:21;100753.03;;;20.64;42.40
79645;BME280;69117;47.148;18.954;2023-05-10T10:01:25;100731.47;;;19.81;42.57
79645;BME280;69117;47.148;18.954;2023-05-10T10:04:27;100736.63;;;18.60;46.05
79645;BME280;69117;47.148;18.954;2023-05-10T10:07:30;100729.50;;;19.96;41.92
79645;BME280;69117;47.148;18.954;2023-05-10T10:10:32;100728.97;;;21.30;40.02
79645;BME280;69117;47.148;18.954;2023-05-10T10:13:34;100737.06;;;20.55;41.22
79645;BME280;69117;47.148;18.954;2023-05-10T10:16:36;100735.03;;;19.88;43.71
79645;BME280;69117;47.148;18.954;2023-05-10T10:19:52;100728.81;;;20.16;42.28
79645;BME280;69117;47.148;18.954;2023-05-10T10:22:53;100721.63;;;20.71;41.79
79645;BME280;69117;47.148;18.954;2023-05-10T10:25:55;100726.59;;;20.74;40.43
79645;BME280;69117;47.148;18.954;2023-05-10T10:29:29;100703.31;;;19.98;40.22
79645;BME280;69117;47.148;18.954;2023-05-10T10:32:44;100711.41;;;21.27;40.38
79645;BME280;69117;47.148;18.954;2023-05-10T10:35:57;100721.38;;;21.40;40.07
79645;BME280;69117;47.148;18.954;2023-05-10T10:39:00;100702.16;;;21.37;39.29
79645;BME280;69117;47.148;18.954;2023-05-10T10:42:04;100694.38;;;22.20;38.06
79645;BME280;69117;47.148;18.954;2023-05-10T10:45:12;100698.81;;;21.61;41.11
79645;BME280;69117;47.148;18.954;2023-05-10T10:48:24;100711.56;;;20.38;41.00
79645;BME280;69117;47.148;18.954;2023-05-10T10:51:28;100709.75;;;21.07;39.45
79645;BME280;69117;47.148;18.954;2023-05-10T10:54:32;100695.72;;;22.49;37.30
79645;BME280;69117;47.148;18.954;2023-05-10T11:00:41;100678.53;;;21.32;38.25
79645;BME280;69117;47.148;18.954;2023-05-10T11:07:19;100670.16;;;22.20;39.57
79645;BME280;69117;47.148;18.954;2023-05-10T11:10:21;100668.31;;;23.91;35.28
79645;BME280;69117;47.148;18.954;2023-05-10T11:13:39;100669.97;;;23.23;35.43
79645;BME280;69117;47.148;18.954;2023-05-10T11:16:42;100669.13;;;23.48;34.33
79645;BME280;69117;47.148;18.954;2023-05-10T11:23:12;100665.41;;;22.02;38.37
79645;BME280;69117;47.148;18.954;2023-05-10T11:26:14;100671.34;;;21.46;37.75
79645;BME280;69117;47.148;18.954;2023-05-10T11:29:16;100656.31;;;22.03;37.53
79645;BME280;69117;47.148;18.954;2023-05-10T11:32:19;100649.03;;;23.44;35.75
79645;BME280;69117;47.148;18.954;2023-05-10T11:35:21;100663.34;;;24.43;32.82
79645;BME280;69117;47.148;18.954;2023-05-10T11:38:22;100649.28;;;22.85;34.23
79645;BME280;69117;47.148;18.954;2023-05-10T11:41:25;100655.31;;;22.49;35.51
79645;BME280;69117;47.148;18.954;2023-05-10T11:44:31;100656.09;;;23.45;35.00
79645;BME280;69117;47.148;18.954;2023-05-10T11:47:33;100643.97;;;25.30;32.28
79645;BME280;69117;47.148;18.954;2023-05-10T11:50:37;100642.56;;;26.55;30.15
79645;BME280;69117;47.148;18.954;2023-05-10T11:53:38;100652.44;;;24.80;31.58
79645;BME280;69117;47.148;18.954;2023-05-10T11:56:40;100647.81;;;22.58;33.83
79645;BME280;69117;47.148;18.954;2023-05-10T11:59:42;100636.41;;;22.11;35.77
79645;BME280;69117;47.148;18.954;2023-05-10T12:02:44;100640.69;;;21.67;37.58
79645;BME280;69117;47.148;18.954;2023-05-10T12:05:46;100640.66;;;21.73;36.18
79645;BME280;69117;47.148;18.954;2023-05-10T12:08:48;100646.09;;;24.26;33.21
79645;BME280;69117;47.148;18.954;2023-05-10T12:11:55;100629.22;;;21.98;35.77
79645;BME280;69117;47.148;18.954;2023-05-10T12:14:58;100639.03;;;20.86;35.77
79645;BME280;69117;47.148;18.954;2023-05-10T12:18:00;100645.41;;;20.10;37.35
79645;BME280;69117;47.148;18.954;2023-05-10T12:21:03;100636.16;;;21.14;34.85
79645;BME280;69117;47.148;18.954;2023-05-10T12:24:05;100632.00;;;22.30;34.19
79645;BME280;69117;47.148;18.954;2023-05-10T12:27:08;100626.41;;;22.63;34.56
79645;BME280;69117;47.148;18.954;2023-05-10T12:30:28;100628.81;;;22.46;35.10
79645;BME280;69117;47.148;18.954;2023-05-10T12:33:42;100617.34;;;21.21;35.32
79645;BME280;69117;47.148;18.954;2023-05-10T12:36:44;100614.44;;;22.91;33.54
79645;BME280;69117;47.148;18.954;2023-05-10T12:39:46;100614.66;;;23.39;32.84
79645;BME280;69117;47.148;18.954;2023-05-10T12:42:47;100611.88;;;23.71;31.55
79645;BME280;69117;47.148;18.954;2023-05-10T12:45:50;100613.97;;;23.44;31.92
79645;BME280;69117;47.148;18.954;2023-05-10T12:48:51;100605.59;;;22.52;32.41
79645;BME280;69117;47.148;18.954;2023-05-10T12:52:09;100602.25;;;21.46;35.06
79645;BME280;69117;47.148;18.954;2023-05-10T12:55:10;100603.06;;;21.54;35.94
79645;BME280;69117;47.148;18.954;2023-05-10T12:58:12;100580.44;;;21.75;34.74
79645;BME280;69117;47.148;18.954;2023-05-10T13:01:28;100591.84;;;21.77;36.42
79645;BME280;69117;47.148;18.954;2023-05-10T13:04:29;100593.28;;;21.79;35.26
79645;BME280;69117;47.148;18.954;2023-05-10T13:07:31;100584.72;;;22.40;33.58
79645;BME280;69117;47.148;18.954;2023-05-10T13:10:32;100574.31;;;22.12;33.20
79645;BME280;69117;47.148;18.954;2023-05-10T13:13:34;100556.00;;;23.90;30.25
79645;BME280;69117;47.148;18.954;2023-05-10T13:16:36;100568.28;;;23.49;30.30
79645;BME280;69117;47.148;18.954;2023-05-10T13:19:37;100564.88;;;23.17;31.24
79645;BME280;69117;47.148;18.954;2023-05-10T13:22:39;100573.31;;;23.02;31.38
79645;BME280;69117;47.148;18.954;2023-05-10T13:25:41;100556.66;;;24.99;29.60
79645;BME280;69117;47.148;18.954;2023-05-10T13:28:43;100560.91;;;24.11;29.81
79645;BME280;69117;47.148;18.954;2023-05-10T13:31:45;100530.56;;;24.70;27.26
79645;BME280;69117;47.148;18.954;2023-05-10T13:34:47;100548.63;;;24.15;27.60
79645;BME280;69117;47.148;18.954;2023-05-10T13:37:49;100541.13;;;24.59;28.34
79645;BME280;69117;47.148;18.954;2023-05-10T13:40:51;100541.69;;;26.08;27.64
79645;BME280;69117;47.148;18.954;2023-05-10T13:43:54;100531.69;;;27.21;27.17
79645;BME280;69117;47.148;18.954;2023-05-10T13:46:56;100537.88;;;26.66;27.13
79645;BME280;69117;47.148;18.954;2023-05-10T13:49:58;100541.13;;;26.68;25.53
79645;BME280;69117;47.148;18.954;2023-05-10T13:52:59;100523.97;;;26.00;25.17
79645;BME280;69117;47.148;18.954;2023-05-10T13:56:01;100522.97;;;26.85;25.97
79645;BME280;69117;47.148;18.954;2023-05-10T13:59:04;100539.00;;;27.86;24.77
79645;BME280;69117;47.148;18.954;2023-05-10T14:02:06;100520.44;;;28.00;25.31
79645;BME280;69117;47.148;18.954;2023-05-10T14:05:07;100509.19;;;27.26;25.63
79645;BME280;69117;47.148;18.954;2023-05-10T14:08:09;100526.69;;;24.77;30.31
79645;BME280;69117;47.148;18.954;2023-05-10T14:11:11;100526.53;;;22.39;32.58
79645;BME280;69117;47.148;18.954;2023-05-10T14:14:12;100523.81;;;22.08;32.86
79645;BME280;69117;47.148;18.954;2023-05-10T14:17:14;100521.28;;;21.75;34.21
79645;BME280;69117;47.148;18.954;2023-05-10T14:20:16;100526.19;;;21.84;34.26
79645;BME280;69117;47.148;18.954;2023-05-10T14:23:18;100520.44;;;20.96;35.12
79645;BME280;69117;47.148;18.954;2023-05-10T14:26:21;100510.53;;;20.63;34.88
79645;BME280;69117;47.148;18.954;2023-05-10T14:29:23;100513.72;;;20.12;34.78
79645;BME280;69117;47.148;18.954;2023-05-10T14:32:24;100513.72;;;20.05;35.02
79645;BME280;69117;47.148;18.954;2023-05-10T14:35:28;100520.84;;;20.53;35.72
79645;BME280;69117;47.148;18.954;2023-05-10T14:38:32;100518.19;;;20.73;35.59
79645;BME280;69117;47.148;18.954;2023-05-10T14:41:34;100505.56;;;22.73;32.89
79645;BME280;69117;47.148;18.954;2023-05-10T14:44:35;100501.06;;;22.04;32.65
79645;BME280;69117;47.148;18.954;2023-05-10T14:47:37;100507.03;;;21.67;34.00
79645;BME280;69117;47.148;18.954;2023-05-10T14:50:39;100514.38;;;21.40;33.59
79645;BME280;69117;47.148;18.954;2023-05-10T14:53:40;100515.06;;;20.96;34.73
79645;BME280;69117;47.148;18.954;2023-05-10T14:56:42;100510.13;;;20.73;34.85
79645;BME280;69117;47.148;18.954;2023-05-10T14:59:44;100506.66;;;21.57;34.19
79645;BME280;69117;47.148;18.954;2023-05-10T15:02:46;100505.91;;;21.43;35.17
79645;BME280;69117;47.148;18.954;2023-05-10T15:05:49;100503.84;;;20.12;34.75
79645;BME280;69117;47.148;18.954;2023-05-10T15:08:51;100513.09;;;19.49;35.00
79645;BME280;69117;47.148;18.954;2023-05-10T15:11:53;100514.44;;;19.73;36.13
79645;BME280;69117;47.148;18.954;2023-05-10T15:14:55;100513.84;;;19.71;36.56
79645;BME280;69117;47.148;18.954;2023-05-10T15:17:57;100496.03;;;21.04;33.38
79645;BME280;69117;47.148;18.954;2023-05-10T15:20:58;100496.16;;;21.87;32.48
79645;BME280;69117;47.148;18.954;2023-05-10T15:24:00;100487.03;;;23.94;28.57
79645;BME280;69117;47.148;18.954;2023-05-10T15:27:02;100489.50;;;26.29;26.24
79645;BME280;69117;47.148;18.954;2023-05-10T15:30:04;100486.72;;;26.91;25.79
79645;BME280;69117;47.148;18.954;2023-05-10T15:33:05;100484.75;;;24.09;29.28
79645;BME280;69117;47.148;18.954;2023-05-10T15:36:08;100490.63;;;25.19;29.33
79645;BME280;69117;47.148;18.954;2023-05-10T15:39:10;100475.56;;;26.20;27.44
79645;BME280;69117;47.148;18.954;2023-05-10T15:42:12;100487.56;;;27.31;24.40
79645;BME280;69117;47.148;18.954;2023-05-10T15:45:13;100486.41;;;26.88;25.51
79645;BME280;69117;47.148;18.954;2023-05-10T15:48:16;100490.41;;;26.63;26.23
79645;BME280;69117;47.148;18.954;2023-05-10T15:51:18;100490.28;;;27.31;26.10
79645;BME280;69117;47.148;18.954;2023-05-10T15:54:20;100483.78;;;27.32;25.22
79645;BME280;69117;47.148;18.954;2023-05-10T15:57:21;100489.66;;;27.24;26.63
79645;BME280;69117;47.148;18.954;2023-05-10T16:00:23;100492.16;;;25.03;28.73
79645;BME280;69117;47.148;18.954;2023-05-10T16:03:25;100496.31;;;22.37;32.84
79645;BME280;69117;47.148;18.954;2023-05-10T16:06:27;100495.56;;;21.27;34.43
79645;BME280;69117;47.148;18.954;2023-05-10T16:09:28;100500.38;;;21.77;34.26
79645;BME280;69117;47.148;18.954;2023-05-10T16:12:30;100506.09;;;23.07;32.30
79645;BME280;69117;47.148;18.954;2023-05-10T16:15:32;100498.22;;;21.92;34.54